sensor_id;sensor_type;location;lat;lon;timestamp;temperature;humidity
1888;DHT22;944;51.574;6.980;2023-08-21T00:02:19;19.10;1.00
1888;DHT22;944;51.574;6.980;2023-08-21T00:04:46;19.00;1.00
1888;DHT22;944;51.574;6.980;2023-08-21T00:07:14;19.00;1.00
1888;DHT22;944;51.574;6.980;2023-08-21T00:09:41;19.00;1.00
1888;DHT22;944;51.574;6.980;2023-08-21T00:12:08;19.00;99.90
1888;DHT22;944;51.574;6.980;2023-08-21T00:14:35;19.00;99.90
1888;DHT22;944;51.574;6.980;2023-08-21T00:17:03;19.10;1.00
1888;DHT22;944;51.574;6.980;2023-08-21T00:19:30;19.00;99.90
1888;DHT22;944;51.574;6.980;2023-08-21T00:21:57;19.10;94.60
1888;DHT22;944;51.574;6.980;2023-08-21T00:24:25;19.20;53.40
1888;DHT22;944;51.574;6.980;2023-08-21T00:26:52;19.20;1.00
1888;DHT22;944;51.574;6.980;2023-08-21T00:29:20;19.30;99.90
1888;DHT22;944;51.574;6.980;2023-08-21T00:31:47;19.30;99.90
1888;DHT22;944;51.574;6.980;2023-08-21T00:34:14;19.20;99.90
1888;DHT22;944;51.574;6.980;2023-08-21T00:36:41;19.10;1.00
1888;DHT22;944;51.574;6.980;2023-08-21T00:39:08;19.20;1.00
1888;DHT22;944;51.574;6.980;2023-08-21T00:41:36;19.10;1.00
1888;DHT22;944;51.574;6.980;2023-08-21T00:44:03;19.20;99.90
1888;DHT22;944;51.574;6.980;2023-08-21T00:46:31;19.30;99.90
1888;DHT22;944;51.574;6.980;2023-08-21T00:48:58;19.40;99.90
1888;DHT22;944;51.574;6.980;2023-08-21T00:51:25;19.30;99.90
1888;DHT22;944;51.574;6.980;2023-08-21T00:53:52;19.60;99.90
1888;DHT22;944;51.574;6.980;2023-08-21T00:56:19;19.40;99.90
1888;DHT22;944;51.574;6.980;2023-08-21T00:58:48;19.30;99.90
1888;DHT22;944;51.574;6.980;2023-08-21T01:01:16;19.20;1.00
1888;DHT22;944;51.574;6.980;2023-08-21T01:03:44;19.20;1.00
1888;DHT22;944;51.574;6.980;2023-08-21T01:06:11;19.20;1.00
1888;DHT22;944;51.574;6.980;2023-08-21T01:08:45;19.30;99.90
1888;DHT22;944;51.574;6.980;2023-08-21T01:11:20;19.20;1.00
1888;DHT22;944;51.574;6.980;2023-08-21T01:13:55;19.10;1.00
1888;DHT22;944;51.574;6.980;2023-08-21T01:16:28;19.10;99.90
1888;DHT22;944;51.574;6.980;2023-08-21T01:18:56;19.00;1.00
1888;DHT22;944;51.574;6.980;2023-08-21T01:21:25;19.10;99.90
1888;DHT22;944;51.574;6.980;2023-08-21T01:23:53;19.10;93.00
1888;DHT22;944;51.574;6.980;2023-08-21T01:26:21;19.20;1.00
1888;DHT22;944;51.574;6.980;2023-08-21T01:28:48;19.20;99.90
1888;DHT22;944;51.574;6.980;2023-08-21T01:31:23;19.30;99.90
1888;DHT22;944;51.574;6.980;2023-08-21T01:33:54;19.40;99.90
1888;DHT22;944;51.574;6.980;2023-08-21T01:36:23;19.40;99.90
1888;DHT22;944;51.574;6.980;2023-08-21T01:38:51;19.50;99.90
1888;DHT22;944;51.574;6.980;2023-08-21T01:41:23;19.50;99.90
1888;DHT22;944;51.574;6.980;2023-08-21T01:43:50;19.50;99.90
1888;DHT22;944;51.574;6.980;2023-08-21T01:46:17;19.40;99.90
1888;DHT22;944;51.574;6.980;2023-08-21T01:48:44;19.40;99.90
1888;DHT22;944;51.574;6.980;2023-08-21T01:51:11;19.30;99.90
1888;DHT22;944;51.574;6.980;2023-08-21T01:53:38;19.50;99.90
1888;DHT22;944;51.574;6.980;2023-08-21T01:56:07;19.40;99.90
1888;DHT22;944;51.574;6.980;2023-08-21T01:58:34;19.40;99.90
1888;DHT22;944;51.574;6.980;2023-08-21T02:01:01;19.40;99.90
1888;DHT22;944;51.574;6.980;2023-08-21T02:03:29;19.30;99.90
1888;DHT22;944;51.574;6.980;2023-08-21T02:05:57;19.20;99.90
1888;DHT22;944;51.574;6.980;2023-08-21T02:08:27;19.20;99.90
1888;DHT22;944;51.574;6.980;2023-08-21T02:10:57;19.20;99.90
1888;DHT22;944;51.574;6.980;2023-08-21T02:13:25;19.20;99.90
1888;DHT22;944;51.574;6.980;2023-08-21T02:15:52;19.10;99.90
1888;DHT22;944;51.574;6.980;2023-08-21T02:18:20;19.20;99.90
1888;DHT22;944;51.574;6.980;2023-08-21T02:20:47;19.20;99.90
1888;DHT22;944;51.574;6.980;2023-08-21T02:23:15;19.30;99.90
1888;DHT22;944;51.574;6.980;2023-08-21T02:25:42;19.30;99.90
1888;DHT22;944;51.574;6.980;2023-08-21T02:28:09;19.30;99.90
1888;DHT22;944;51.574;6.980;2023-08-21T02:30:40;19.30;99.90
1888;DHT22;944;51.574;6.980;2023-08-21T02:33:07;19.20;1.00
1888;DHT22;944;51.574;6.980;2023-08-21T02:35:34;19.00;1.00
1888;DHT22;944;51.574;6.980;2023-08-21T02:38:01;19.10;99.90
1888;DHT22;944;51.574;6.980;2023-08-21T02:40:29;18.80;99.90
1888;DHT22;944;51.574;6.980;2023-08-21T02:42:56;18.70;1.00
1888;DHT22;944;51.574;6.980;2023-08-21T02:45:24;18.60;1.00
1888;DHT22;944;51.574;6.980;2023-08-21T02:47:52;18.60;17.00
1888;DHT22;944;51.574;6.980;2023-08-21T02:50:19;18.50;99.90
1888;DHT22;944;51.574;6.980;2023-08-21T02:52:46;18.40;99.90
1888;DHT22;944;51.574;6.980;2023-08-21T02:55:13;18.60;99.90
1888;DHT22;944;51.574;6.980;2023-08-21T02:57:41;18.30;99.90
1888;DHT22;944;51.574;6.980;2023-08-21T03:00:08;18.40;99.90
1888;DHT22;944;51.574;6.980;2023-08-21T03:02:37;18.40;99.90
1888;DHT22;944;51.574;6.980;2023-08-21T03:05:09;18.40;1.00
1888;DHT22;944;51.574;6.980;2023-08-21T03:07:37;18.30;1.00
1888;DHT22;944;51.574;6.980;2023-08-21T03:10:05;18.20;1.00
1888;DHT22;944;51.574;6.980;2023-08-21T03:12:33;18.40;99.90
1888;DHT22;944;51.574;6.980;2023-08-21T03:15:01;18.40;99.90
1888;DHT22;944;51.574;6.980;2023-08-21T03:17:28;18.50;97.50
1888;DHT22;944;51.574;6.980;2023-08-21T03:19:55;18.60;1.00
1888;DHT22;944;51.574;6.980;2023-08-21T03:22:24;18.60;1.00
1888;DHT22;944;51.574;6.980;2023-08-21T03:24:51;18.60;1.00
1888;DHT22;944;51.574;6.980;2023-08-21T03:27:18;18.70;1.00
1888;DHT22;944;51.574;6.980;2023-08-21T03:29:45;18.70;99.90
1888;DHT22;944;51.574;6.980;2023-08-21T03:32:14;18.70;99.90
1888;DHT22;944;51.574;6.980;2023-08-21T03:34:42;18.80;99.90
1888;DHT22;944;51.574;6.980;2023-08-21T03:37:09;18.80;99.90
1888;DHT22;944;51.574;6.980;2023-08-21T03:39:37;18.60;1.00
1888;DHT22;944;51.574;6.980;2023-08-21T03:42:05;18.70;1.00
1888;DHT22;944;51.574;6.980;2023-08-21T03:44:32;18.70;1.00
1888;DHT22;944;51.574;6.980;2023-08-21T03:47:00;18.50;1.00
1888;DHT22;944;51.574;6.980;2023-08-21T03:49:27;18.60;82.90
1888;DHT22;944;51.574;6.980;2023-08-21T03:51:54;18.60;99.90
1888;DHT22;944;51.574;6.980;2023-08-21T03:54:20;18.60;99.90
1888;DHT22;944;51.574;6.980;2023-08-21T03:56:48;18.50;99.90
1888;DHT22;944;51.574;6.980;2023-08-21T03:59:15;18.40;99.90
1888;DHT22;944;51.574;6.980;2023-08-21T04:01:42;18.40;99.90
1888;DHT22;944;51.574;6.980;2023-08-21T04:04:09;18.30;1.00
1888;DHT22;944;51.574;6.980;2023-08-21T04:06:36;18.20;1.00
1888;DHT22;944;51.574;6.980;2023-08-21T04:09:03;18.20;1.00
1888;DHT22;944;51.574;6.980;2023-08-21T04:11:31;18.20;1.00
1888;DHT22;944;51.574;6.980;2023-08-21T04:14:01;18.20;1.00
1888;DHT22;944;51.574;6.980;2023-08-21T04:16:28;18.20;1.00
1888;DHT22;944;51.574;6.980;2023-08-21T04:18:56;18.20;1.00
1888;DHT22;944;51.574;6.980;2023-08-21T04:21:23;18.20;1.00
1888;DHT22;944;51.574;6.980;2023-08-21T04:23:50;18.20;1.00
1888;DHT22;944;51.574;6.980;2023-08-21T04:26:17;18.30;1.00
1888;DHT22;944;51.574;6.980;2023-08-21T04:28:45;18.10;1.00
1888;DHT22;944;51.574;6.980;2023-08-21T04:31:13;18.20;1.00
1888;DHT22;944;51.574;6.980;2023-08-21T04:33:40;18.20;1.00
1888;DHT22;944;51.574;6.980;2023-08-21T04:36:07;18.20;1.00
1888;DHT22;944;51.574;6.980;2023-08-21T04:38:41;18.30;1.00
1888;DHT22;944;51.574;6.980;2023-08-21T04:41:08;18.20;1.00
1888;DHT22;944;51.574;6.980;2023-08-21T04:43:37;18.20;1.00
1888;DHT22;944;51.574;6.980;2023-08-21T04:46:04;18.20;99.90
1888;DHT22;944;51.574;6.980;2023-08-21T04:48:33;18.20;99.90
1888;DHT22;944;51.574;6.980;2023-08-21T04:51:09;18.20;99.90
1888;DHT22;944;51.574;6.980;2023-08-21T04:53:42;18.20;31.00
1888;DHT22;944;51.574;6.980;2023-08-21T04:56:14;18.20;99.90
1888;DHT22;944;51.574;6.980;2023-08-21T04:58:47;18.10;99.90
1888;DHT22;944;51.574;6.980;2023-08-21T05:01:17;18.10;99.90
1888;DHT22;944;51.574;6.980;2023-08-21T05:03:48;18.10;99.90
1888;DHT22;944;51.574;6.980;2023-08-21T05:06:17;18.30;99.90
1888;DHT22;944;51.574;6.980;2023-08-21T05:08:47;18.10;1.00
1888;DHT22;944;51.574;6.980;2023-08-21T05:11:17;18.00;99.90
1888;DHT22;944;51.574;6.980;2023-08-21T05:13:48;18.00;99.90
1888;DHT22;944;51.574;6.980;2023-08-21T05:16:32;18.10;99.90
1888;DHT22;944;51.574;6.980;2023-08-21T05:19:12;18.10;99.90
1888;DHT22;944;51.574;6.980;2023-08-21T05:21:47;18.20;99.90
1888;DHT22;944;51.574;6.980;2023-08-21T05:28:05;18.30;99.90
1888;DHT22;944;51.574;6.980;2023-08-21T05:30:59;18.30;1.00
1888;DHT22;944;51.574;6.980;2023-08-21T06:04:23;19.50;99.90
1888;DHT22;944;51.574;6.980;2023-08-21T06:10:27;19.70;1.00
1888;DHT22;944;51.574;6.980;2023-08-21T06:25:09;20.20;99.90
1888;DHT22;944;51.574;6.980;2023-08-21T06:47:20;21.20;1.00
1888;DHT22;944;51.574;6.980;2023-08-21T06:50:03;21.30;1.00
1888;DHT22;944;51.574;6.980;2023-08-21T06:52:59;21.20;99.90
